sensor_id;sensor_type;location;lat;lon;timestamp;pressure;altitude;pressure_sealevel;temperature;humidity
21401;BME280;18038;50.166;18.908;2022-11-15T00:01:09;98343.28;;;4.25;82.58
21401;BME280;18038;50.166;18.908;2022-11-15T00:03:45;98342.31;;;4.35;82.01
21401;BME280;18038;50.166;18.908;2022-11-15T00:06:17;98335.94;;;4.38;82.01
21401;BME280;18038;50.166;18.908;2022-11-15T00:08:44;98337.75;;;4.47;81.87
21401;BME280;18038;50.166;18.908;2022-11-15T00:11:11;98328.56;;;4.41;81.45
21401;BME280;18038;50.166;18.908;2022-11-15T00:13:36;98319.28;;;4.37;81.59
21401;BME280;18038;50.166;18.908;2022-11-15T00:16:01;98322.16;;;4.15;82.01
21401;BME280;18038;50.166;18.908;2022-11-15T00:18:28;98317.88;;;4.24;81.68
21401;BME280;18038;50.166;18.908;2022-11-15T00:21:05;98317.31;;;4.10;82.13
21401;BME280;18038;50.166;18.908;2022-11-15T00:23:35;98312.69;;;3.93;83.36
21401;BME280;18038;50.166;18.908;2022-11-15T00:26:05;98301.47;;;4.01;82.92
21401;BME280;18038;50.166;18.908;2022-11-15T00:28:31;98300.38;;;4.03;82.53
21401;BME280;18038;50.166;18.908;2022-11-15T00:31:00;98302.88;;;4.14;82.90
21401;BME280;18038;50.166;18.908;2022-11-15T00:33:29;98304.28;;;4.18;81.53
21401;BME280;18038;50.166;18.908;2022-11-15T00:36:00;98297.75;;;4.13;81.44
21401;BME280;18038;50.166;18.908;2022-11-15T00:38:25;98296.59;;;3.86;82.29
21401;BME280;18038;50.166;18.908;2022-11-15T00:40:54;98289.56;;;3.46;83.59
21401;BME280;18038;50.166;18.908;2022-11-15T00:43:22;98298.34;;;3.36;84.53
21401;BME280;18038;50.166;18.908;2022-11-15T00:45:47;98292.47;;;3.22;85.60
21401;BME280;18038;50.166;18.908;2022-11-15T00:48:11;98286.94;;;2.95;86.55
21401;BME280;18038;50.166;18.908;2022-11-15T00:52:03;98286.69;;;2.98;87.52
21401;BME280;18038;50.166;18.908;2022-11-15T00:54:28;98292.38;;;3.03;87.50
21401;BME280;18038;50.166;18.908;2022-11-15T00:56:53;98283.88;;;2.89;87.12
21401;BME280;18038;50.166;18.908;2022-11-15T00:59:18;98278.09;;;2.75;87.89
21401;BME280;18038;50.166;18.908;2022-11-15T01:01:45;98274.06;;;2.71;88.23
21401;BME280;18038;50.166;18.908;2022-11-15T01:04:09;98275.41;;;2.65;88.64
21401;BME280;18038;50.166;18.908;2022-11-15T01:06:34;98275.59;;;2.52;89.24
21401;BME280;18038;50.166;18.908;2022-11-15T01:09:02;98270.78;;;2.57;89.21
21401;BME280;18038;50.166;18.908;2022-11-15T01:11:34;98261.56;;;2.63;88.97
21401;BME280;18038;50.166;18.908;2022-11-15T01:14:00;98257.91;;;2.75;88.84
21401;BME280;18038;50.166;18.908;2022-11-15T01:16:24;98262.44;;;2.73;88.66
21401;BME280;18038;50.166;18.908;2022-11-15T01:18:56;98262.91;;;2.78;88.77
21401;BME280;18038;50.166;18.908;2022-11-15T01:21:24;98255.81;;;2.79;88.62
21401;BME280;18038;50.166;18.908;2022-11-15T01:23:52;98250.38;;;2.71;88.77
21401;BME280;18038;50.166;18.908;2022-11-15T01:26:39;98250.66;;;2.47;89.04
21401;BME280;18038;50.166;18.908;2022-11-15T01:29:04;98248.97;;;2.45;88.82
21401;BME280;18038;50.166;18.908;2022-11-15T01:31:30;98242.38;;;2.30;89.31
21401;BME280;18038;50.166;18.908;2022-11-15T01:33:57;98247.66;;;2.19;89.80
21401;BME280;18038;50.166;18.908;2022-11-15T01:36:22;98240.69;;;2.29;89.80
21401;BME280;18038;50.166;18.908;2022-11-15T01:38:46;98235.81;;;2.45;89.70
21401;BME280;18038;50.166;18.908;2022-11-15T01:41:20;98231.72;;;2.53;89.32
21401;BME280;18038;50.166;18.908;2022-11-15T01:43:52;98231.63;;;2.64;88.80
21401;BME280;18038;50.166;18.908;2022-11-15T01:46:27;98227.47;;;2.61;88.37
21401;BME280;18038;50.166;18.908;2022-11-15T01:48:58;98221.28;;;2.72;88.61
21401;BME280;18038;50.166;18.908;2022-11-15T01:51:32;98218.19;;;2.36;88.57
21401;BME280;18038;50.166;18.908;2022-11-15T01:54:05;98215.28;;;2.39;88.87
21401;BME280;18038;50.166;18.908;2022-11-15T01:56:40;98213.84;;;2.47;88.60
21401;BME280;18038;50.166;18.908;2022-11-15T01:59:14;98215.94;;;2.32;89.00
21401;BME280;18038;50.166;18.908;2022-11-15T02:01:40;98217.22;;;2.37;88.98
21401;BME280;18038;50.166;18.908;2022-11-15T02:04:11;98211.06;;;2.27;89.00
21401;BME280;18038;50.166;18.908;2022-11-15T02:06:41;98206.59;;;2.39;89.24
21401;BME280;18038;50.166;18.908;2022-11-15T02:09:17;98208.22;;;2.40;88.97
21401;BME280;18038;50.166;18.908;2022-11-15T02:11:45;98204.47;;;2.33;89.12
21401;BME280;18038;50.166;18.908;2022-11-15T02:14:17;98202.59;;;2.23;89.17
21401;BME280;18038;50.166;18.908;2022-11-15T02:16:57;98200.69;;;2.47;89.41
21401;BME280;18038;50.166;18.908;2022-11-15T02:22:59;98190.34;;;2.34;89.35
21401;BME280;18038;50.166;18.908;2022-11-15T02:25:41;98180.59;;;2.25;89.92
21401;BME280;18038;50.166;18.908;2022-11-15T02:28:44;98185.09;;;2.55;89.38
21401;BME280;18038;50.166;18.908;2022-11-15T02:31:26;98178.56;;;2.49;88.92
21401;BME280;18038;50.166;18.908;2022-11-15T02:34:08;98179.91;;;2.43;89.24
21401;BME280;18038;50.166;18.908;2022-11-15T02:36:47;98173.84;;;2.53;89.01
21401;BME280;18038;50.166;18.908;2022-11-15T02:39:26;98178.66;;;2.48;88.60
21401;BME280;18038;50.166;18.908;2022-11-15T02:42:02;98180.13;;;2.61;88.65
21401;BME280;18038;50.166;18.908;2022-11-15T02:45:06;98166.50;;;2.47;88.45
21401;BME280;18038;50.166;18.908;2022-11-15T02:47:41;98168.78;;;2.19;89.38
21401;BME280;18038;50.166;18.908;2022-11-15T02:50:14;98178.19;;;2.33;89.56
21401;BME280;18038;50.166;18.908;2022-11-15T02:52:45;98169.69;;;2.50;89.45
21401;BME280;18038;50.166;18.908;2022-11-15T02:55:29;98161.25;;;2.47;88.89
21401;BME280;18038;50.166;18.908;2022-11-15T02:58:15;98164.78;;;2.36;89.17
21401;BME280;18038;50.166;18.908;2022-11-15T03:01:00;98166.34;;;2.48;89.10
21401;BME280;18038;50.166;18.908;2022-11-15T03:03:54;98160.63;;;2.43;88.78
21401;BME280;18038;50.166;18.908;2022-11-15T03:06:35;98151.50;;;2.16;89.10
21401;BME280;18038;50.166;18.908;2022-11-15T03:09:12;98152.66;;;2.03;89.57
21401;BME280;18038;50.166;18.908;2022-11-15T03:11:56;98149.00;;;1.94;89.80
21401;BME280;18038;50.166;18.908;2022-11-15T03:14:30;98147.91;;;1.96;90.24
21401;BME280;18038;50.166;18.908;2022-11-15T03:17:07;98154.34;;;2.04;90.29
21401;BME280;18038;50.166;18.908;2022-11-15T03:19:56;98144.38;;;2.28;89.66
21401;BME280;18038;50.166;18.908;2022-11-15T03:22:33;98147.47;;;2.33;89.10
21401;BME280;18038;50.166;18.908;2022-11-15T03:25:04;98144.56;;;2.15;88.66
21401;BME280;18038;50.166;18.908;2022-11-15T03:27:38;98143.50;;;2.18;88.99
21401;BME280;18038;50.166;18.908;2022-11-15T03:30:27;98138.97;;;2.30;88.47
21401;BME280;18038;50.166;18.908;2022-11-15T03:33:00;98140.84;;;2.18;88.39
21401;BME280;18038;50.166;18.908;2022-11-15T03:35:37;98142.41;;;2.20;88.91
21401;BME280;18038;50.166;18.908;2022-11-15T03:38:13;98130.66;;;2.25;88.41
21401;BME280;18038;50.166;18.908;2022-11-15T03:40:52;98134.63;;;2.40;88.43
21401;BME280;18038;50.166;18.908;2022-11-15T03:43:30;98123.63;;;2.56;87.85
21401;BME280;18038;50.166;18.908;2022-11-15T03:46:03;98117.25;;;2.58;87.16
21401;BME280;18038;50.166;18.908;2022-11-15T03:48:37;98117.53;;;2.55;87.02
21401;BME280;18038;50.166;18.908;2022-11-15T03:51:14;98104.16;;;2.37;86.92
21401;BME280;18038;50.166;18.908;2022-11-15T03:53:41;98115.28;;;2.51;86.71
21401;BME280;18038;50.166;18.908;2022-11-15T03:56:06;98113.78;;;2.27;87.02
21401;BME280;18038;50.166;18.908;2022-11-15T03:58:31;98109.31;;;2.18;87.83
21401;BME280;18038;50.166;18.908;2022-11-15T04:00:59;98099.34;;;1.91;88.15
21401;BME280;18038;50.166;18.908;2022-11-15T04:03:23;98101.06;;;1.81;89.24
21401;BME280;18038;50.166;18.908;2022-11-15T04:05:49;98098.06;;;1.85;89.20
21401;BME280;18038;50.166;18.908;2022-11-15T04:08:23;98090.41;;;2.03;89.40
21401;BME280;18038;50.166;18.908;2022-11-15T04:10:50;98089.19;;;2.07;88.75
21401;BME280;18038;50.166;18.908;2022-11-15T04:13:16;98087.41;;;2.08;88.85
21401;BME280;18038;50.166;18.908;2022-11-15T04:15:41;98084.06;;;2.06;88.82
21401;BME280;18038;50.166;18.908;2022-11-15T04:18:08;98084.03;;;1.96;89.13
21401;BME280;18038;50.166;18.908;2022-11-15T04:20:33;98084.50;;;2.11;88.84
21401;BME280;18038;50.166;18.908;2022-11-15T04:23:13;98084.06;;;2.06;88.59
21401;BME280;18038;50.166;18.908;2022-11-15T04:25:56;98070.47;;;2.00;88.80
21401;BME280;18038;50.166;18.908;2022-11-15T04:28:23;98075.25;;;1.86;89.34
21401;BME280;18038;50.166;18.908;2022-11-15T04:30:48;98079.84;;;1.93;89.39
21401;BME280;18038;50.166;18.908;2022-11-15T04:33:13;98077.88;;;1.86;89.57
21401;BME280;18038;50.166;18.908;2022-11-15T04:35:39;98069.53;;;1.81;89.87
21401;BME280;18038;50.166;18.908;2022-11-15T04:38:05;98073.44;;;1.86;89.89
21401;BME280;18038;50.166;18.908;2022-11-15T04:40:29;98065.00;;;1.83;89.63
21401;BME280;18038;50.166;18.908;2022-11-15T04:42:58;98073.06;;;1.91;89.42
21401;BME280;18038;50.166;18.908;2022-11-15T04:45:25;98056.97;;;1.84;89.37
21401;BME280;18038;50.166;18.908;2022-11-15T04:47:50;98062.75;;;1.78;89.41
21401;BME280;18038;50.166;18.908;2022-11-15T04:50:16;98065.63;;;1.75;89.30
21401;BME280;18038;50.166;18.908;2022-11-15T04:52:42;98060.03;;;1.68;89.10
21401;BME280;18038;50.166;18.908;2022-11-15T04:55:13;98046.34;;;1.65;89.52
21401;BME280;18038;50.166;18.908;2022-11-15T04:57:38;98058.00;;;1.72;89.08
21401;BME280;18038;50.166;18.908;2022-11-15T05:00:08;98049.34;;;1.60;89.20
21401;BME280;18038;50.166;18.908;2022-11-15T05:02:34;98057.75;;;1.54;89.09
21401;BME280;18038;50.166;18.908;2022-11-15T05:05:12;98055.13;;;1.75;88.85
21401;BME280;18038;50.166;18.908;2022-11-15T05:07:36;98053.44;;;1.74;88.22
21401;BME280;18038;50.166;18.908;2022-11-15T05:10:00;98051.66;;;1.74;88.07
21401;BME280;18038;50.166;18.908;2022-11-15T05:12:33;98045.97;;;1.69;88.00
21401;BME280;18038;50.166;18.908;2022-11-15T05:14:58;98042.00;;;1.75;88.14
21401;BME280;18038;50.166;18.908;2022-11-15T05:17:30;98029.34;;;1.69;88.06
21401;BME280;18038;50.166;18.908;2022-11-15T05:19:55;98024.88;;;1.60;87.68
21401;BME280;18038;50.166;18.908;2022-11-15T05:22:20;98024.78;;;1.29;88.29
21401;BME280;18038;50.166;18.908;2022-11-15T05:24:46;98025.75;;;1.28;88.60
21401;BME280;18038;50.166;18.908;2022-11-15T05:27:11;98023.38;;;1.25;88.77
21401;BME280;18038;50.166;18.908;2022-11-15T05:29:35;98021.94;;;1.32;88.76
21401;BME280;18038;50.166;18.908;2022-11-15T05:32:00;98014.25;;;1.40;88.01
21401;BME280;18038;50.166;18.908;2022-11-15T05:34:27;98005.22;;;1.33;87.96
21401;BME280;18038;50.166;18.908;2022-11-15T05:36:53;98008.34;;;1.27;87.80
21401;BME280;18038;50.166;18.908;2022-11-15T05:39:17;97996.88;;;1.28;87.98
21401;BME280;18038;50.166;18.908;2022-11-15T05:41:46;98004.41;;;1.21;88.03
21401;BME280;18038;50.166;18.908;2022-11-15T05:44:19;98003.03;;;1.17;88.30
21401;BME280;18038;50.166;18.908;2022-11-15T05:46:50;98004.63;;;1.08;88.44
21401;BME280;18038;50.166;18.908;2022-11-15T05:49:21;98005.91;;;1.03;88.32
21401;BME280;18038;50.166;18.908;2022-11-15T05:51:55;98002.47;;;1.02;88.71
21401;BME280;18038;50.166;18.908;2022-11-15T05:54:23;98003.69;;;0.98;88.84
21401;BME280;18038;50.166;18.908;2022-11-15T05:56:49;98004.56;;;0.87;88.74
21401;BME280;18038;50.166;18.908;2022-11-15T05:59:16;98005.91;;;0.71;89.15
21401;BME280;18038;50.166;18.908;2022-11-15T06:01:41;98002.34;;;0.72;89.56
21401;BME280;18038;50.166;18.908;2022-11-15T06:04:06;97999.09;;;0.79;89.59
21401;BME280;18038;50.166;18.908;2022-11-15T06:06:31;98004.88;;;0.94;88.95
21401;BME280;18038;50.166;18.908;2022-11-15T06:08:58;98003.44;;;1.01;88.49
21401;BME280;18038;50.166;18.908;2022-11-15T06:11:22;98003.06;;;1.06;88.27
21401;BME280;18038;50.166;18.908;2022-11-15T06:13:48;97998.50;;;1.08;88.11
21401;BME280;18038;50.166;18.908;2022-11-15T06:16:12;98000.88;;;0.90;88.35
21401;BME280;18038;50.166;18.908;2022-11-15T06:18:38;97993.75;;;0.70;89.18
21401;BME280;18038;50.166;18.908;2022-11-15T06:21:04;97992.31;;;0.65;89.30
21401;BME280;18038;50.166;18.908;2022-11-15T06:23:32;98003.47;;;0.90;89.17
21401;BME280;18038;50.166;18.908;2022-11-15T06:26:01;98003.91;;;1.06;88.56
21401;BME280;18038;50.166;18.908;2022-11-15T06:28:28;98013.00;;;1.23;88.11
21401;BME280;18038;50.166;18.908;2022-11-15T06:30:52;98011.66;;;1.29;87.30
21401;BME280;18038;50.166;18.908;2022-11-15T06:33:17;98014.06;;;1.32;87.01
21401;BME280;18038;50.166;18.908;2022-11-15T06:35:42;98010.84;;;1.49;86.67
21401;BME280;18038;50.166;18.908;2022-11-15T06:38:09;98012.47;;;1.62;86.64
21401;BME280;18038;50.166;18.908;2022-11-15T06:40:37;98009.50;;;1.55;85.95
21401;BME280;18038;50.166;18.908;2022-11-15T06:43:06;98015.53;;;1.46;85.94
21401;BME280;18038;50.166;18.908;2022-11-15T06:45:31;98008.22;;;1.49;86.30
21401;BME280;18038;50.166;18.908;2022-11-15T06:47:56;98019.47;;;1.82;86.16
21401;BME280;18038;50.166;18.908;2022-11-15T06:50:21;98023.19;;;2.00;84.72
21401;BME280;18038;50.166;18.908;2022-11-15T06:52:46;98021.25;;;2.03;84.16
21401;BME280;18038;50.166;18.908;2022-11-15T06:55:10;98027.72;;;2.19;83.92
21401;BME280;18038;50.166;18.908;2022-11-15T06:57:36;98016.97;;;2.32;83.19
21401;BME280;18038;50.166;18.908;2022-11-15T07:00:04;98024.63;;;2.45;82.98
21401;BME280;18038;50.166;18.908;2022-11-15T07:02:30;98029.81;;;2.66;82.61
21401;BME280;18038;50.166;18.908;2022-11-15T07:04:55;98028.31;;;2.73;82.48
21401;BME280;18038;50.166;18.908;2022-11-15T07:07:20;98030.38;;;2.79;82.54
21401;BME280;18038;50.166;18.908;2022-11-15T07:09:44;98023.06;;;2.93;82.04
21401;BME280;18038;50.166;18.908;2022-11-15T07:12:09;98029.34;;;3.01;81.54
21401;BME280;18038;50.166;18.908;2022-11-15T07:14:33;98026.31;;;3.25;81.17
21401;BME280;18038;50.166;18.908;2022-11-15T07:17:03;98023.13;;;3.41;79.77
21401;BME280;18038;50.166;18.908;2022-11-15T07:19:28;98027.38;;;3.62;79.98
21401;BME280;18038;50.166;18.908;2022-11-15T07:21:53;98025.97;;;3.67;79.25
21401;BME280;18038;50.166;18.908;2022-11-15T07:24:17;98037.63;;;3.94;79.21
21401;BME280;18038;50.166;18.908;2022-11-15T07:26:42;98028.09;;;4.20;78.61
21401;BME280;18038;50.166;18.908;2022-11-15T07:29:06;98022.75;;;4.40;77.08
21401;BME280;18038;50.166;18.908;2022-11-15T07:31:31;98024.97;;;4.62;76.41
21401;BME280;18038;50.166;18.908;2022-11-15T07:33:59;98027.09;;;4.69;75.50
21401;BME280;18038;50.166;18.908;2022-11-15T07:36:23;98019.13;;;4.96;74.97
21401;BME280;18038;50.166;18.908;2022-11-15T07:38:48;98022.59;;;4.79;75.00
21401;BME280;18038;50.166;18.908;2022-11-15T07:41:14;98015.38;;;5.17;74.89
21401;BME280;18038;50.166;18.908;2022-11-15T07:43:40;98016.66;;;5.30;72.72
21401;BME280;18038;50.166;18.908;2022-11-15T07:46:06;98018.41;;;5.22;73.92
21401;BME280;18038;50.166;18.908;2022-11-15T07:48:36;98010.22;;;4.79;75.42
21401;BME280;18038;50.166;18.908;2022-11-15T07:51:11;98011.78;;;4.62;76.95
21401;BME280;18038;50.166;18.908;2022-11-15T07:53:40;98014.03;;;4.57;76.83
21401;BME280;18038;50.166;18.908;2022-11-15T07:56:07;98006.38;;;4.36;77.39
21401;BME280;18038;50.166;18.908;2022-11-15T07:58:32;98002.50;;;4.86;76.55
21401;BME280;18038;50.166;18.908;2022-11-15T08:00:57;98006.50;;;4.62;77.18
21401;BME280;18038;50.166;18.908;2022-11-15T08:03:22;98009.16;;;4.62;76.35
21401;BME280;18038;50.166;18.908;2022-11-15T08:05:51;98007.16;;;4.47;77.04
21401;BME280;18038;50.166;18.908;2022-11-15T08:08:19;97999.63;;;4.52;77.95
21401;BME280;18038;50.166;18.908;2022-11-15T08:10:43;97995.38;;;4.96;76.60
21401;BME280;18038;50.166;18.908;2022-11-15T08:13:10;97998.31;;;5.11;75.94
21401;BME280;18038;50.166;18.908;2022-11-15T08:15:37;97989.03;;;5.25;74.98
21401;BME280;18038;50.166;18.908;2022-11-15T08:18:04;97991.69;;;5.25;75.27
21401;BME280;18038;50.166;18.908;2022-11-15T08:20:30;97989.84;;;5.25;74.73
21401;BME280;18038;50.166;18.908;2022-11-15T08:22:57;97995.44;;;5.22;76.05
21401;BME280;18038;50.166;18.908;2022-11-15T08:25:25;97994.09;;;5.00;75.96
21401;BME280;18038;50.166;18.908;2022-11-15T08:27:51;97994.88;;;5.11;76.44
21401;BME280;18038;50.166;18.908;2022-11-15T08:30:17;97999.47;;;5.26;75.34
21401;BME280;18038;50.166;18.908;2022-11-15T08:32:42;97991.81;;;5.41;74.72
21401;BME280;18038;50.166;18.908;2022-11-15T08:35:07;97991.91;;;5.75;73.77
21401;BME280;18038;50.166;18.908;2022-11-15T08:37:32;97993.72;;;6.27;73.58
21401;BME280;18038;50.166;18.908;2022-11-15T08:39:57;97991.31;;;7.01;71.42
21401;BME280;18038;50.166;18.908;2022-11-15T08:42:24;97995.50;;;7.69;68.36
21401;BME280;18038;50.166;18.908;2022-11-15T08:44:49;97995.66;;;7.92;67.51
21401;BME280;18038;50.166;18.908;2022-11-15T08:47:15;97997.31;;;8.09;66.09
21401;BME280;18038;50.166;18.908;2022-11-15T08:49:39;97991.31;;;8.15;67.35
21401;BME280;18038;50.166;18.908;2022-11-15T08:52:05;98003.19;;;8.36;66.10
21401;BME280;18038;50.166;18.908;2022-11-15T08:54:29;97998.97;;;8.97;64.70
21401;BME280;18038;50.166;18.908;2022-11-15T08:56:53;97998.06;;;8.74;64.51
21401;BME280;18038;50.166;18.908;2022-11-15T08:59:22;97994.25;;;9.08;63.79
21401;BME280;18038;50.166;18.908;2022-11-15T09:01:47;97989.50;;;8.55;65.35
21401;BME280;18038;50.166;18.908;2022-11-15T09:04:11;97997.59;;;8.23;66.36
21401;BME280;18038;50.166;18.908;2022-11-15T09:06:36;97989.84;;;8.05;67.51
21401;BME280;18038;50.166;18.908;2022-11-15T09:09:03;97984.63;;;8.67;67.05
21401;BME280;18038;50.166;18.908;2022-11-15T09:11:27;97988.78;;;9.55;64.62
21401;BME280;18038;50.166;18.908;2022-11-15T09:13:55;97991.75;;;9.52;63.93
21401;BME280;18038;50.166;18.908;2022-11-15T09:16:23;97979.38;;;9.21;63.83
21401;BME280;18038;50.166;18.908;2022-11-15T09:18:47;97979.53;;;9.81;63.53
21401;BME280;18038;50.166;18.908;2022-11-15T09:21:13;97979.00;;;9.85;62.62
21401;BME280;18038;50.166;18.908;2022-11-15T09:23:37;97969.69;;;9.29;64.85
21401;BME280;18038;50.166;18.908;2022-11-15T09:26:04;97967.53;;;10.00;63.48
21401;BME280;18038;50.166;18.908;2022-11-15T09:28:31;97960.97;;;10.25;62.13
21401;BME280;18038;50.166;18.908;2022-11-15T09:31:00;97954.72;;;10.03;62.93
21401;BME280;18038;50.166;18.908;2022-11-15T09:33:29;97945.63;;;9.98;63.17
21401;BME280;18038;50.166;18.908;2022-11-15T09:36:01;97948.69;;;9.57;63.87
21401;BME280;18038;50.166;18.908;2022-11-15T09:38:28;97948.13;;;10.14;63.42
21401;BME280;18038;50.166;18.908;2022-11-15T09:44:13;97929.13;;;10.83;61.00
21401;BME280;18038;50.166;18.908;2022-11-15T09:47:10;97932.69;;;10.90;60.33
21401;BME280;18038;50.166;18.908;2022-11-15T09:50:14;97934.88;;;10.50;61.84
21401;BME280;18038;50.166;18.908;2022-11-15T09:52:23;97928.19;;;10.10;63.28
21401;BME280;18038;50.166;18.908;2022-11-15T09:54:32;97928.84;;;10.12;63.97
21401;BME280;18038;50.166;18.908;2022-11-15T09:57:04;97924.50;;;10.26;63.24
21401;BME280;18038;50.166;18.908;2022-11-15T09:59:36;97922.78;;;9.88;64.27
21401;BME280;18038;50.166;18.908;2022-11-15T10:02:01;97922.13;;;10.46;63.23
21401;BME280;18038;50.166;18.908;2022-11-15T10:04:18;97914.66;;;10.92;62.75
21401;BME280;18038;50.166;18.908;2022-11-15T10:06:31;97914.19;;;11.53;59.97
21401;BME280;18038;50.166;18.908;2022-11-15T10:08:51;97912.72;;;11.72;59.54
21401;BME280;18038;50.166;18.908;2022-11-15T10:11:10;97906.66;;;11.63;60.03
21401;BME280;18038;50.166;18.908;2022-11-15T10:13:44;97906.78;;;11.49;60.00
21401;BME280;18038;50.166;18.908;2022-11-15T10:15:56;97895.28;;;11.48;60.67
21401;BME280;18038;50.166;18.908;2022-11-15T10:18:20;97888.56;;;11.87;59.35
21401;BME280;18038;50.166;18.908;2022-11-15T10:20:47;97893.06;;;12.15;59.16
21401;BME280;18038;50.166;18.908;2022-11-15T10:23:02;97892.38;;;12.06;58.86
21401;BME280;18038;50.166;18.908;2022-11-15T10:25:18;97890.22;;;11.32;60.30
21401;BME280;18038;50.166;18.908;2022-11-15T10:27:25;97891.91;;;11.11;61.14
21401;BME280;18038;50.166;18.908;2022-11-15T10:29:31;97890.03;;;11.33;61.10
21401;BME280;18038;50.166;18.908;2022-11-15T10:31:40;97890.91;;;11.68;60.77
21401;BME280;18038;50.166;18.908;2022-11-15T10:33:46;97886.50;;;12.17;58.86
21401;BME280;18038;50.166;18.908;2022-11-15T10:36:17;97880.66;;;12.42;58.37
21401;BME280;18038;50.166;18.908;2022-11-15T10:38:32;97883.38;;;12.07;59.10
21401;BME280;18038;50.166;18.908;2022-11-15T10:40:40;97883.56;;;12.05;59.57
21401;BME280;18038;50.166;18.908;2022-11-15T10:42:48;97883.88;;;11.61;61.06
21401;BME280;18038;50.166;18.908;2022-11-15T10:45:25;97870.09;;;11.08;62.94
21401;BME280;18038;50.166;18.908;2022-11-15T10:47:35;97877.56;;;10.91;63.87
21401;BME280;18038;50.166;18.908;2022-11-15T10:49:57;97874.50;;;11.15;63.21
21401;BME280;18038;50.166;18.908;2022-11-15T10:52:16;97874.44;;;11.09;63.09
21401;BME280;18038;50.166;18.908;2022-11-15T10:54:35;97875.91;;;11.11;63.06
21401;BME280;18038;50.166;18.908;2022-11-15T10:56:49;97869.13;;;10.87;63.40
21401;BME280;18038;50.166;18.908;2022-11-15T10:59:03;97861.56;;;10.91;63.49
21401;BME280;18038;50.166;18.908;2022-11-15T11:01:20;97864.59;;;10.88;64.17
21401;BME280;18038;50.166;18.908;2022-11-15T11:03:39;97861.84;;;11.02;64.50
21401;BME280;18038;50.166;18.908;2022-11-15T11:05:47;97862.22;;;11.21;63.71
21401;BME280;18038;50.166;18.908;2022-11-15T11:07:56;97864.72;;;11.22;62.97
21401;BME280;18038;50.166;18.908;2022-11-15T11:10:19;97853.72;;;11.32;63.94
21401;BME280;18038;50.166;18.908;2022-11-15T11:12:48;97847.53;;;11.60;63.03
21401;BME280;18038;50.166;18.908;2022-11-15T11:14:53;97851.34;;;11.79;62.10
21401;BME280;18038;50.166;18.908;2022-11-15T11:17:06;97839.38;;;11.96;61.58
21401;BME280;18038;50.166;18.908;2022-11-15T11:22:17;97848.50;;;12.22;61.00
21401;BME280;18038;50.166;18.908;2022-11-15T11:24:36;97838.31;;;12.45;59.59
21401;BME280;18038;50.166;18.908;2022-11-15T11:27:00;97841.25;;;12.64;60.22
21401;BME280;18038;50.166;18.908;2022-11-15T11:29:28;97833.50;;;13.15;58.56
21401;BME280;18038;50.166;18.908;2022-11-15T11:31:54;97831.88;;;13.34;56.62
21401;BME280;18038;50.166;18.908;2022-11-15T11:34:17;97829.59;;;13.51;55.33
21401;BME280;18038;50.166;18.908;2022-11-15T11:36:47;97819.13;;;13.30;55.40
21401;BME280;18038;50.166;18.908;2022-11-15T11:39:18;97823.66;;;13.22;55.90
21401;BME280;18038;50.166;18.908;2022-11-15T11:41:55;97823.25;;;13.26;55.81
21401;BME280;18038;50.166;18.908;2022-11-15T11:44:21;97814.56;;;13.43;56.09
21401;BME280;18038;50.166;18.908;2022-11-15T11:46:48;97811.06;;;13.56;54.98
21401;BME280;18038;50.166;18.908;2022-11-15T11:49:08;97807.97;;;13.66;54.56
21401;BME280;18038;50.166;18.908;2022-11-15T11:51:23;97804.91;;;13.49;54.74
21401;BME280;18038;50.166;18.908;2022-11-15T11:53:40;97805.09;;;13.61;54.87
21401;BME280;18038;50.166;18.908;2022-11-15T11:55:54;97804.66;;;13.71;54.58
21401;BME280;18038;50.166;18.908;2022-11-15T11:58:16;97809.16;;;13.77;54.88
21401;BME280;18038;50.166;18.908;2022-11-15T12:00:26;97796.13;;;13.94;54.77
21401;BME280;18038;50.166;18.908;2022-11-15T12:02:40;97791.16;;;14.04;54.42
21401;BME280;18038;50.166;18.908;2022-11-15T12:04:57;97783.50;;;14.14;53.87
21401;BME280;18038;50.166;18.908;2022-11-15T12:07:15;97776.69;;;14.18;53.38
21401;BME280;18038;50.166;18.908;2022-11-15T12:09:32;97775.25;;;14.16;54.25
21401;BME280;18038;50.166;18.908;2022-11-15T12:11:51;97774.00;;;14.18;53.57
21401;BME280;18038;50.166;18.908;2022-11-15T12:14:24;97767.88;;;14.04;52.97
21401;BME280;18038;50.166;18.908;2022-11-15T12:16:40;97769.97;;;13.96;52.84
21401;BME280;18038;50.166;18.908;2022-11-15T12:19:02;97778.88;;;13.83;53.55
21401;BME280;18038;50.166;18.908;2022-11-15T12:21:18;97771.31;;;13.73;53.78
21401;BME280;18038;50.166;18.908;2022-11-15T12:23:39;97773.00;;;13.48;54.61
21401;BME280;18038;50.166;18.908;2022-11-15T12:25:56;97767.66;;;13.41;54.75
21401;BME280;18038;50.166;18.908;2022-11-15T12:28:15;97764.34;;;13.46;55.32
21401;BME280;18038;50.166;18.908;2022-11-15T12:30:42;97761.44;;;13.54;55.71
21401;BME280;18038;50.166;18.908;2022-11-15T12:32:57;97759.56;;;13.68;54.75
21401;BME280;18038;50.166;18.908;2022-11-15T12:35:21;97754.63;;;13.71;54.38
21401;BME280;18038;50.166;18.908;2022-11-15T12:37:49;97761.88;;;13.51;55.27
21401;BME280;18038;50.166;18.908;2022-11-15T12:40:20;97759.47;;;13.29;55.41
21401;BME280;18038;50.166;18.908;2022-11-15T12:42:41;97755.53;;;13.25;55.85
21401;BME280;18038;50.166;18.908;2022-11-15T12:44:58;97745.66;;;13.19;55.72
21401;BME280;18038;50.166;18.908;2022-11-15T12:47:24;97745.03;;;13.04;55.90
21401;BME280;18038;50.166;18.908;2022-11-15T12:49:45;97736.63;;;12.93;56.40
21401;BME280;18038;50.166;18.908;2022-11-15T12:52:07;97733.13;;;12.93;56.59
21401;BME280;18038;50.166;18.908;2022-11-15T12:57:22;97723.25;;;12.80;56.73
21401;BME280;18038;50.166;18.908;2022-11-15T12:59:48;97718.94;;;12.79;57.60
21401;BME280;18038;50.166;18.908;2022-11-15T13:01:59;97714.84;;;12.83;57.27
21401;BME280;18038;50.166;18.908;2022-11-15T13:04:20;97717.09;;;12.80;57.33
21401;BME280;18038;50.166;18.908;2022-11-15T13:06:41;97711.34;;;12.76;58.00
21401;BME280;18038;50.166;18.908;2022-11-15T13:08:52;97712.56;;;12.73;57.65